Flight Track Log - Related Links

Times and Time Zones

All times are in EDT time to prevent confusion due to time zone crossing. See the EJA998 flight status page for this flight to view local times or setup timezone preferences in your user account.

Time Position Orientation Groundspeed Altitude Reporting Facility
EDT Latitude Longitude Course Direction KTS MPH feet Rate Location/Type
Thu 01:11:15 PM 33.5486 -86.7856 298° West 192 221 1,500  Level Atlanta Center
Thu 01:12:04 PM 33.5667 -86.8261 298° West 207 238 3,800 2,457 Climbing Atlanta Center
Thu 01:13:00 PM 33.6053 -86.7675 52° Northeast 245 282 5,800 2,379 Climbing Atlanta Center
Thu 01:14:00 PM 33.6403 -86.6961 59° Northeast 270 311 8,400 2,650 Climbing Atlanta Center
Thu 01:15:00 PM 33.6961 -86.6256 46° Northeast 275 316 11,100 2,150 Climbing Atlanta Center
Thu 01:16:00 PM 33.7603 -86.5525 43° Northeast 295 339 12,700 1,750 Climbing Atlanta Center
Thu 01:17:00 PM 33.8331 -86.4669 44° Northeast 329 379 14,600 1,850 Climbing Atlanta Center
Thu 01:18:00 PM 33.9119 -86.3792 43° Northeast 355 409 16,400 1,200 Climbing Atlanta Center
Thu 01:19:00 PM 33.9908 -86.2861 44° Northeast 376 433 17,000 300 Climbing Atlanta Center
Thu 01:20:00 PM 34.0803 -86.1856 43° Northeast 403 464 17,000 950 Level Atlanta Center
Thu 01:21:00 PM 34.1694 -86.0950 40° Northeast 411 473 18,900 2,050 Climbing Atlanta Center
Thu 01:22:00 PM 34.2728 -86.0397 24° Northeast 404 465 21,100 1,800 Climbing Atlanta Center
Thu 01:23:00 PM 34.3719 -85.9742 29° Northeast 404 465 22,500 1,300 Climbing Atlanta Center
Thu 01:24:00 PM 34.4528 -85.8678 47° Northeast 404 465 23,700 1,300 Climbing Atlanta Center
Thu 01:25:00 PM 34.5544 -85.7689 39° Northeast 415 478 25,100 1,300 Climbing Atlanta Center
Thu 01:26:00 PM 34.6739 -85.7311 15° North 421 484 26,300 1,250 Climbing Atlanta Center
Thu 01:27:00 PM 34.7956 -85.6881 16° North 432 497 27,600 1,200 Climbing Atlanta Center
Thu 01:28:00 PM 34.9169 -85.6447 16° North 444 511 28,700 1,100 Climbing Atlanta Center
Thu 01:29:00 PM 35.0428 -85.6039 15° North 449 517 29,800 1,350 Climbing Atlanta Center
Thu 01:30:00 PM 35.1686 -85.5606 16° North 455 524 31,400 1,700 Climbing Atlanta Center
Thu 01:31:00 PM 35.2942 -85.5172 16° North 460 529 33,200 1,225 Climbing Atlanta Center
Thu 01:33:11 PM 35.5686 -85.4225 16° North 478 550 35,300 1,273 Climbing Atlanta Center
Thu 01:35:24 PM 35.8622 -85.3194 16° North 504 580 38,800 1,385 Climbing Indianapolis Center
Thu 01:36:26 PM 35.9997 -85.2714 16° North 506 582 39,800 585 Climbing Indianapolis Center
Thu 01:37:27 PM 36.1392 -85.2217 16° North 513 590 40,000  Climbing Indianapolis Center
Thu 01:38:29 PM 36.3083 -85.1619 16° North 521 600 39,800 -919 Descending Indianapolis Center
Thu 01:39:31 PM 36.4464 -85.0925 22° Northeast 542 624 38,100 -1,694 Descending Indianapolis Center
Thu 01:40:33 PM 36.5806 -84.9978 30° Northeast 554 638 36,300 -1,645 Descending Indianapolis Center
Thu 01:41:35 PM 36.7175 -84.9011 29° Northeast 562 647 34,700 -1,113 Descending Indianapolis Center
Thu 01:42:37 PM 36.8531 -84.8031 30° Northeast 562 647 34,000 -871 Descending Indianapolis Center
Thu 01:43:39 PM 36.9889 -84.7072 29° Northeast 561 646 32,900 -1,548 Descending Indianapolis Center
Thu 01:44:41 PM 37.1294 -84.6114 29° Northeast 558 642 30,800 -2,419 Descending Indianapolis Center
Thu 01:45:43 PM 37.2936 -84.5178 24° Northeast 555 639 27,900 -2,710 Descending Indianapolis Center
Thu 01:46:45 PM 37.4400 -84.4953 North 532 612 25,200 -1,887 Descending Indianapolis Center
Thu 01:47:47 PM 37.5764 -84.4747 North 503 579 24,000 -581 Descending Indianapolis Center
Thu 01:48:49 PM 37.7108 -84.4542 North 482 555 24,000  Level Indianapolis Center
Thu 01:49:51 PM 37.8450 -84.4339 North 482 555 24,000 -435 Level Indianapolis Center
Thu 01:50:53 PM 37.9792 -84.4139 North 483 556 23,100 -1,355 Descending Indianapolis Center
Thu 01:51:55 PM 38.1136 -84.3936 North 481 554 21,200 -1,500 Descending Indianapolis Center
Thu 01:52:57 PM 38.2150 -84.2644 45° Northeast 477 549 20,000 -774 Descending Indianapolis Center
Thu 01:53:59 PM 38.2428 -84.1225 76° East 415 478 19,600 -1,065 Descending Indianapolis Center
Thu 01:55:01 PM 38.2719 -84.0056 72° East 356 410 17,800 -2,341 Descending Indianapolis Center
Thu 01:56:02 PM 38.3489 -83.9733 18° North 319 367 14,800 -2,390 Descending Indianapolis Center
Thu 01:57:04 PM 38.4111 -84.0378 321° Northwest 288 331 12,900 -1,548 Descending Indianapolis Center
Thu 01:58:06 PM 38.4697 -84.1061 318° Northwest 285 328 11,600 -1,500 Descending Indianapolis Center
Thu 01:59:08 PM 38.5375 -84.1811 319° Northwest 278 320 9,800 -2,032 Descending Indianapolis Center
Thu 02:00:10 PM 38.5953 -84.2483 318° Northwest 278 320 7,400 -2,129 Descending Indianapolis Center
Thu 02:01:12 PM 38.6553 -84.2897 332° Northwest 265 305 5,400 -1,500 Descending Indianapolis Center
Thu 02:02:14 PM 38.7064 -84.3311 328° Northwest 225 259 4,300 -629 Descending Indianapolis Center
Thu 02:03:16 PM 38.7542 -84.3744 325° Northwest 221 254 4,100 -563 Descending Indianapolis Center
Thu 02:05:26 PM 38.8833 -84.4167 346° North 211 243 2,500 -490 Descending Cincinnati TRACON
Thu 02:06:32 PM 38.9500 -84.4333 349° North 205 236 2,500 -150 Level Cincinnati TRACON
Thu 02:07:26 PM 39.0000 -84.4333 360° North 205 236 2,200 -421 Descending Cincinnati TRACON
Thu 02:08:26 PM 39.0500 -84.4333 360° North 152 175 1,700 -500 Descending Cincinnati TRACON
Thu 02:10:00 PM 39.1000 -84.4167 57° Northeast  Level FlightAware Approximate
Thu 02:17:00 PM 39.1033 -84.4186 57° Northeast  Level Estimated

Login

Don't have an account? Register now (free) for customized features, flight alerts, and more!